METAR Formatted Surface Weather Observation
Issued by NWS Columbia, SC

Home | Current Version | Previous Version | Text Only | Print | Product List | Glossary On
Versions: 1
000
SAUS42 KCAE 231501
MTRCAE
METAR KCAE 231456Z 05004KT 1SM BR OVC003 07/07 A3004 RMK AO2 SLP173
T00670067 51014 RVRNO



USA.gov is the U.S. government's official web portal to all federal, state and local government web resources and services.